sensor_id;sensor_type;location;lat;lon;timestamp;P1;durP1;ratioP1;P2;durP2;ratioP2
63316;SDS011;49822;41.468;13.560;2022-10-16T00:01:40;20.27;;;12.38;;
63316;SDS011;49822;41.468;13.560;2022-10-16T00:04:08;23.38;;;11.68;;
63316;SDS011;49822;41.468;13.560;2022-10-16T00:06:36;17.73;;;11.38;;
63316;SDS011;49822;41.468;13.560;2022-10-16T00:09:04;20.42;;;11.18;;
63316;SDS011;49822;41.468;13.560;2022-10-16T00:11:33;18.55;;;11.45;;
63316;SDS011;49822;41.468;13.560;2022-10-16T00:14:06;20.88;;;11.25;;
63316;SDS011;49822;41.468;13.560;2022-10-16T00:19:03;18.40;;;11.00;;
63316;SDS011;49822;41.468;13.560;2022-10-16T00:21:31;18.38;;;12.25;;
63316;SDS011;49822;41.468;13.560;2022-10-16T00:24:00;19.45;;;11.70;;
63316;SDS011;49822;41.468;13.560;2022-10-16T00:26:29;20.83;;;10.95;;
63316;SDS011;49822;41.468;13.560;2022-10-16T00:28:58;19.42;;;11.13;;
63316;SDS011;49822;41.468;13.560;2022-10-16T00:31:26;18.10;;;11.10;;
63316;SDS011;49822;41.468;13.560;2022-10-16T00:33:55;18.35;;;11.40;;
63316;SDS011;49822;41.468;13.560;2022-10-16T00:36:23;19.25;;;11.52;;
63316;SDS011;49822;41.468;13.560;2022-10-16T00:38:54;17.45;;;10.65;;
63316;SDS011;49822;41.468;13.560;2022-10-16T00:41:25;18.80;;;11.52;;
63316;SDS011;49822;41.468;13.560;2022-10-16T00:43:57;16.88;;;10.52;;
63316;SDS011;49822;41.468;13.560;2022-10-16T00:49:05;17.98;;;11.40;;
63316;SDS011;49822;41.468;13.560;2022-10-16T00:51:45;16.90;;;9.95;;
63316;SDS011;49822;41.468;13.560;2022-10-16T00:54:28;22.20;;;11.90;;
63316;SDS011;49822;41.468;13.560;2022-10-16T00:56:58;17.60;;;10.75;;
63316;SDS011;49822;41.468;13.560;2022-10-16T00:59:30;18.15;;;11.38;;
63316;SDS011;49822;41.468;13.560;2022-10-16T01:01:59;19.90;;;11.43;;
63316;SDS011;49822;41.468;13.560;2022-10-16T01:04:29;16.20;;;10.35;;
63316;SDS011;49822;41.468;13.560;2022-10-16T01:07:19;16.10;;;10.38;;
63316;SDS011;49822;41.468;13.560;2022-10-16T01:12:52;17.13;;;10.57;;
63316;SDS011;49822;41.468;13.560;2022-10-16T01:21:01;21.85;;;12.85;;
63316;SDS011;49822;41.468;13.560;2022-10-16T01:23:51;21.70;;;11.35;;
63316;SDS011;49822;41.468;13.560;2022-10-16T01:32:10;21.45;;;12.02;;
63316;SDS011;49822;41.468;13.560;2022-10-16T01:35:02;17.45;;;10.73;;
63316;SDS011;49822;41.468;13.560;2022-10-16T01:37:40;21.85;;;11.88;;
63316;SDS011;49822;41.468;13.560;2022-10-16T01:40:30;18.38;;;11.13;;
63316;SDS011;49822;41.468;13.560;2022-10-16T01:43:08;19.15;;;11.98;;
63316;SDS011;49822;41.468;13.560;2022-10-16T01:45:44;22.85;;;12.15;;
63316;SDS011;49822;41.468;13.560;2022-10-16T01:48:18;19.88;;;11.90;;
63316;SDS011;49822;41.468;13.560;2022-10-16T01:53:52;23.30;;;11.57;;
63316;SDS011;49822;41.468;13.560;2022-10-16T01:56:22;20.02;;;11.57;;
63316;SDS011;49822;41.468;13.560;2022-10-16T01:59:02;19.52;;;11.32;;
63316;SDS011;49822;41.468;13.560;2022-10-16T02:01:38;18.40;;;10.65;;
63316;SDS011;49822;41.468;13.560;2022-10-16T02:04:57;18.42;;;11.57;;
63316;SDS011;49822;41.468;13.560;2022-10-16T02:07:03;18.67;;;11.48;;
63316;SDS011;49822;41.468;13.560;2022-10-16T02:09:32;20.42;;;11.48;;
63316;SDS011;49822;41.468;13.560;2022-10-16T02:12:03;18.75;;;11.27;;
63316;SDS011;49822;41.468;13.560;2022-10-16T02:14:37;19.17;;;11.02;;
63316;SDS011;49822;41.468;13.560;2022-10-16T02:17:14;25.70;;;13.88;;
63316;SDS011;49822;41.468;13.560;2022-10-16T02:19:43;23.95;;;12.50;;
63316;SDS011;49822;41.468;13.560;2022-10-16T02:22:22;22.02;;;12.32;;
63316;SDS011;49822;41.468;13.560;2022-10-16T02:25:19;23.48;;;12.93;;
63316;SDS011;49822;41.468;13.560;2022-10-16T02:28:07;18.80;;;11.95;;
63316;SDS011;49822;41.468;13.560;2022-10-16T02:30:50;18.48;;;11.75;;
63316;SDS011;49822;41.468;13.560;2022-10-16T02:33:26;18.55;;;11.18;;
63316;SDS011;49822;41.468;13.560;2022-10-16T02:35:56;24.23;;;12.57;;
63316;SDS011;49822;41.468;13.560;2022-10-16T02:38:25;21.50;;;12.48;;
63316;SDS011;49822;41.468;13.560;2022-10-16T02:40:54;17.75;;;10.77;;
63316;SDS011;49822;41.468;13.560;2022-10-16T02:43:22;16.65;;;10.38;;
63316;SDS011;49822;41.468;13.560;2022-10-16T02:45:50;19.02;;;10.88;;
63316;SDS011;49822;41.468;13.560;2022-10-16T02:50:47;16.27;;;10.77;;
63316;SDS011;49822;41.468;13.560;2022-10-16T02:53:15;16.17;;;10.43;;
63316;SDS011;49822;41.468;13.560;2022-10-16T02:55:42;16.55;;;10.63;;
63316;SDS011;49822;41.468;13.560;2022-10-16T02:58:10;15.48;;;10.00;;
63316;SDS011;49822;41.468;13.560;2022-10-16T03:00:38;32.83;;;15.38;;
63316;SDS011;49822;41.468;13.560;2022-10-16T03:03:11;28.42;;;13.77;;
63316;SDS011;49822;41.468;13.560;2022-10-16T03:05:38;22.90;;;12.52;;
63316;SDS011;49822;41.468;13.560;2022-10-16T03:08:05;19.45;;;11.50;;
63316;SDS011;49822;41.468;13.560;2022-10-16T03:10:33;17.30;;;9.90;;
63316;SDS011;49822;41.468;13.560;2022-10-16T03:13:01;21.35;;;11.65;;
63316;SDS011;49822;41.468;13.560;2022-10-16T03:15:30;31.48;;;14.15;;
63316;SDS011;49822;41.468;13.560;2022-10-16T03:18:03;22.85;;;12.20;;
63316;SDS011;49822;41.468;13.560;2022-10-16T03:20:30;15.02;;;10.15;;
63316;SDS011;49822;41.468;13.560;2022-10-16T03:22:58;19.23;;;10.30;;
63316;SDS011;49822;41.468;13.560;2022-10-16T03:25:25;21.77;;;10.65;;
63316;SDS011;49822;41.468;13.560;2022-10-16T03:27:53;16.55;;;11.00;;
63316;SDS011;49822;41.468;13.560;2022-10-16T03:30:21;20.05;;;11.07;;
63316;SDS011;49822;41.468;13.560;2022-10-16T03:32:59;16.38;;;10.85;;
63316;SDS011;49822;41.468;13.560;2022-10-16T03:35:26;18.63;;;10.68;;
63316;SDS011;49822;41.468;13.560;2022-10-16T03:37:53;19.52;;;10.55;;
63316;SDS011;49822;41.468;13.560;2022-10-16T03:40:21;18.75;;;11.98;;
63316;SDS011;49822;41.468;13.560;2022-10-16T03:42:49;16.70;;;11.20;;
63316;SDS011;49822;41.468;13.560;2022-10-16T03:45:16;16.83;;;10.35;;
63316;SDS011;49822;41.468;13.560;2022-10-16T03:47:53;17.80;;;10.70;;
63316;SDS011;49822;41.468;13.560;2022-10-16T03:50:20;18.27;;;11.05;;
63316;SDS011;49822;41.468;13.560;2022-10-16T03:52:48;29.92;;;12.63;;
63316;SDS011;49822;41.468;13.560;2022-10-16T03:55:16;21.05;;;11.68;;
63316;SDS011;49822;41.468;13.560;2022-10-16T03:57:44;17.90;;;10.30;;
63316;SDS011;49822;41.468;13.560;2022-10-16T04:00:12;16.80;;;10.20;;
63316;SDS011;49822;41.468;13.560;2022-10-16T04:02:40;20.02;;;9.95;;
63316;SDS011;49822;41.468;13.560;2022-10-16T04:05:07;14.10;;;9.23;;
63316;SDS011;49822;41.468;13.560;2022-10-16T04:07:35;19.90;;;10.25;;
63316;SDS011;49822;41.468;13.560;2022-10-16T04:10:03;14.07;;;9.27;;
63316;SDS011;49822;41.468;13.560;2022-10-16T04:12:31;15.82;;;9.48;;
63316;SDS011;49822;41.468;13.560;2022-10-16T04:14:59;14.85;;;9.80;;
63316;SDS011;49822;41.468;13.560;2022-10-16T04:17:26;14.85;;;9.65;;
63316;SDS011;49822;41.468;13.560;2022-10-16T04:19:54;15.90;;;9.13;;
63316;SDS011;49822;41.468;13.560;2022-10-16T04:22:21;15.27;;;10.48;;
63316;SDS011;49822;41.468;13.560;2022-10-16T04:24:49;11.30;;;8.60;;
63316;SDS011;49822;41.468;13.560;2022-10-16T04:27:18;13.18;;;8.93;;
63316;SDS011;49822;41.468;13.560;2022-10-16T04:29:46;13.95;;;9.05;;
63316;SDS011;49822;41.468;13.560;2022-10-16T04:32:14;14.77;;;9.52;;
63316;SDS011;49822;41.468;13.560;2022-10-16T04:34:42;14.30;;;10.13;;
63316;SDS011;49822;41.468;13.560;2022-10-16T04:37:09;16.27;;;9.75;;
63316;SDS011;49822;41.468;13.560;2022-10-16T04:39:36;17.88;;;10.70;;
63316;SDS011;49822;41.468;13.560;2022-10-16T04:42:04;14.13;;;8.93;;
63316;SDS011;49822;41.468;13.560;2022-10-16T04:44:31;13.68;;;9.52;;
63316;SDS011;49822;41.468;13.560;2022-10-16T04:46:59;15.15;;;9.40;;
63316;SDS011;49822;41.468;13.560;2022-10-16T04:49:27;14.27;;;9.57;;
63316;SDS011;49822;41.468;13.560;2022-10-16T04:51:54;12.40;;;9.05;;
63316;SDS011;49822;41.468;13.560;2022-10-16T04:54:21;12.65;;;8.75;;
63316;SDS011;49822;41.468;13.560;2022-10-16T04:56:49;14.32;;;8.73;;
63316;SDS011;49822;41.468;13.560;2022-10-16T04:59:19;12.45;;;8.20;;
63316;SDS011;49822;41.468;13.560;2022-10-16T05:01:49;13.02;;;8.55;;
63316;SDS011;49822;41.468;13.560;2022-10-16T05:04:17;13.68;;;8.68;;
63316;SDS011;49822;41.468;13.560;2022-10-16T05:06:45;14.77;;;8.63;;
63316;SDS011;49822;41.468;13.560;2022-10-16T05:09:12;13.93;;;9.02;;
63316;SDS011;49822;41.468;13.560;2022-10-16T05:11:39;14.15;;;8.57;;
63316;SDS011;49822;41.468;13.560;2022-10-16T05:14:07;13.88;;;8.93;;
63316;SDS011;49822;41.468;13.560;2022-10-16T05:16:39;11.80;;;7.65;;
63316;SDS011;49822;41.468;13.560;2022-10-16T05:19:07;13.40;;;8.57;;
63316;SDS011;49822;41.468;13.560;2022-10-16T05:21:53;13.63;;;9.07;;
63316;SDS011;49822;41.468;13.560;2022-10-16T05:24:20;12.32;;;8.15;;
63316;SDS011;49822;41.468;13.560;2022-10-16T05:26:48;12.23;;;8.05;;
63316;SDS011;49822;41.468;13.560;2022-10-16T05:29:16;13.25;;;8.27;;
63316;SDS011;49822;41.468;13.560;2022-10-16T05:31:45;12.68;;;8.50;;
63316;SDS011;49822;41.468;13.560;2022-10-16T05:34:12;13.10;;;8.52;;
63316;SDS011;49822;41.468;13.560;2022-10-16T05:36:39;13.00;;;9.30;;
63316;SDS011;49822;41.468;13.560;2022-10-16T05:39:07;14.13;;;8.77;;
63316;SDS011;49822;41.468;13.560;2022-10-16T05:41:34;13.02;;;9.25;;
63316;SDS011;49822;41.468;13.560;2022-10-16T05:44:05;13.30;;;9.43;;
63316;SDS011;49822;41.468;13.560;2022-10-16T05:46:32;12.00;;;8.65;;
63316;SDS011;49822;41.468;13.560;2022-10-16T05:49:00;12.77;;;9.02;;
63316;SDS011;49822;41.468;13.560;2022-10-16T05:51:27;15.15;;;9.00;;
63316;SDS011;49822;41.468;13.560;2022-10-16T05:53:54;10.63;;;7.22;;
63316;SDS011;49822;41.468;13.560;2022-10-16T05:56:22;13.90;;;8.50;;
63316;SDS011;49822;41.468;13.560;2022-10-16T05:58:49;12.70;;;7.57;;
63316;SDS011;49822;41.468;13.560;2022-10-16T06:01:18;13.85;;;8.38;;
63316;SDS011;49822;41.468;13.560;2022-10-16T06:03:51;14.20;;;8.73;;
63316;SDS011;49822;41.468;13.560;2022-10-16T06:06:21;28.85;;;13.70;;
63316;SDS011;49822;41.468;13.560;2022-10-16T06:08:51;31.45;;;14.35;;
63316;SDS011;49822;41.468;13.560;2022-10-16T06:11:21;19.73;;;10.70;;
63316;SDS011;49822;41.468;13.560;2022-10-16T06:13:50;17.73;;;9.07;;
63316;SDS011;49822;41.468;13.560;2022-10-16T06:16:19;11.40;;;8.07;;
63316;SDS011;49822;41.468;13.560;2022-10-16T06:18:50;13.10;;;8.15;;
63316;SDS011;49822;41.468;13.560;2022-10-16T06:21:20;17.95;;;9.82;;
63316;SDS011;49822;41.468;13.560;2022-10-16T06:23:53;17.15;;;10.82;;
63316;SDS011;49822;41.468;13.560;2022-10-16T06:26:22;19.98;;;10.82;;
63316;SDS011;49822;41.468;13.560;2022-10-16T06:28:51;12.80;;;9.07;;
63316;SDS011;49822;41.468;13.560;2022-10-16T06:31:21;12.23;;;8.60;;
63316;SDS011;49822;41.468;13.560;2022-10-16T06:33:50;12.00;;;7.90;;
63316;SDS011;49822;41.468;13.560;2022-10-16T06:36:18;12.00;;;8.20;;
63316;SDS011;49822;41.468;13.560;2022-10-16T06:38:47;13.48;;;8.43;;
63316;SDS011;49822;41.468;13.560;2022-10-16T06:41:16;12.30;;;7.30;;
63316;SDS011;49822;41.468;13.560;2022-10-16T06:43:47;12.35;;;8.35;;
63316;SDS011;49822;41.468;13.560;2022-10-16T06:46:18;13.48;;;8.65;;
63316;SDS011;49822;41.468;13.560;2022-10-16T06:48:47;12.88;;;8.70;;
63316;SDS011;49822;41.468;13.560;2022-10-16T06:51:16;14.00;;;9.48;;
63316;SDS011;49822;41.468;13.560;2022-10-16T06:53:47;12.77;;;8.60;;
63316;SDS011;49822;41.468;13.560;2022-10-16T06:56:32;12.95;;;8.75;;
63316;SDS011;49822;41.468;13.560;2022-10-16T06:59:00;13.85;;;8.57;;
63316;SDS011;49822;41.468;13.560;2022-10-16T07:01:29;14.15;;;8.77;;
63316;SDS011;49822;41.468;13.560;2022-10-16T07:03:57;14.35;;;8.88;;
63316;SDS011;49822;41.468;13.560;2022-10-16T07:06:25;18.50;;;10.68;;
63316;SDS011;49822;41.468;13.560;2022-10-16T07:08:53;20.20;;;10.95;;
63316;SDS011;49822;41.468;13.560;2022-10-16T07:11:21;18.73;;;11.35;;
63316;SDS011;49822;41.468;13.560;2022-10-16T07:13:51;19.30;;;11.60;;
63316;SDS011;49822;41.468;13.560;2022-10-16T07:16:25;17.08;;;11.15;;
63316;SDS011;49822;41.468;13.560;2022-10-16T07:18:55;16.80;;;10.63;;
63316;SDS011;49822;41.468;13.560;2022-10-16T07:21:27;15.30;;;10.35;;
63316;SDS011;49822;41.468;13.560;2022-10-16T07:23:58;17.42;;;9.57;;
63316;SDS011;49822;41.468;13.560;2022-10-16T07:26:31;18.10;;;10.45;;
63316;SDS011;49822;41.468;13.560;2022-10-16T07:29:00;18.40;;;11.23;;
63316;SDS011;49822;41.468;13.560;2022-10-16T07:31:28;19.50;;;11.27;;
63316;SDS011;49822;41.468;13.560;2022-10-16T07:33:57;16.52;;;11.20;;
63316;SDS011;49822;41.468;13.560;2022-10-16T07:36:32;15.70;;;10.57;;
63316;SDS011;49822;41.468;13.560;2022-10-16T07:39:00;18.65;;;12.07;;
63316;SDS011;49822;41.468;13.560;2022-10-16T07:41:28;20.52;;;12.20;;
63316;SDS011;49822;41.468;13.560;2022-10-16T07:43:55;18.95;;;12.43;;
63316;SDS011;49822;41.468;13.560;2022-10-16T07:46:27;18.73;;;12.38;;
63316;SDS011;49822;41.468;13.560;2022-10-16T07:48:55;18.67;;;12.18;;
63316;SDS011;49822;41.468;13.560;2022-10-16T07:51:23;20.35;;;12.15;;
63316;SDS011;49822;41.468;13.560;2022-10-16T07:53:51;20.35;;;12.02;;
63316;SDS011;49822;41.468;13.560;2022-10-16T07:56:20;22.42;;;13.57;;
63316;SDS011;49822;41.468;13.560;2022-10-16T07:58:49;18.95;;;11.82;;
63316;SDS011;49822;41.468;13.560;2022-10-16T08:01:18;22.05;;;13.95;;
63316;SDS011;49822;41.468;13.560;2022-10-16T08:03:48;21.92;;;13.38;;
63316;SDS011;49822;41.468;13.560;2022-10-16T08:06:17;21.70;;;12.82;;
63316;SDS011;49822;41.468;13.560;2022-10-16T08:08:53;21.15;;;12.85;;
63316;SDS011;49822;41.468;13.560;2022-10-16T08:11:22;20.08;;;13.40;;
63316;SDS011;49822;41.468;13.560;2022-10-16T08:13:50;17.55;;;11.65;;
63316;SDS011;49822;41.468;13.560;2022-10-16T08:16:18;18.88;;;11.30;;
63316;SDS011;49822;41.468;13.560;2022-10-16T08:18:47;20.02;;;12.90;;
63316;SDS011;49822;41.468;13.560;2022-10-16T08:21:15;18.80;;;12.23;;
63316;SDS011;49822;41.468;13.560;2022-10-16T08:23:47;18.95;;;12.38;;
63316;SDS011;49822;41.468;13.560;2022-10-16T08:26:24;20.08;;;13.35;;
63316;SDS011;49822;41.468;13.560;2022-10-16T08:28:52;20.20;;;12.70;;
63316;SDS011;49822;41.468;13.560;2022-10-16T08:31:20;23.23;;;12.20;;
63316;SDS011;49822;41.468;13.560;2022-10-16T08:33:48;19.80;;;12.68;;
63316;SDS011;49822;41.468;13.560;2022-10-16T08:36:17;24.58;;;12.52;;
63316;SDS011;49822;41.468;13.560;2022-10-16T08:38:49;30.38;;;16.88;;
63316;SDS011;49822;41.468;13.560;2022-10-16T08:49:27;26.20;;;15.02;;
63316;SDS011;49822;41.468;13.560;2022-10-16T08:51:56;29.42;;;15.35;;
63316;SDS011;49822;41.468;13.560;2022-10-16T08:57:25;23.27;;;14.25;;
63316;SDS011;49822;41.468;13.560;2022-10-16T08:59:53;26.23;;;13.85;;
63316;SDS011;49822;41.468;13.560;2022-10-16T09:11:11;22.52;;;13.63;;
63316;SDS011;49822;41.468;13.560;2022-10-16T09:13:57;18.63;;;12.20;;
63316;SDS011;49822;41.468;13.560;2022-10-16T09:16:36;20.85;;;12.65;;
63316;SDS011;49822;41.468;13.560;2022-10-16T09:19:15;18.67;;;12.20;;
63316;SDS011;49822;41.468;13.560;2022-10-16T09:21:52;20.27;;;13.27;;
63316;SDS011;49822;41.468;13.560;2022-10-16T09:24:21;25.42;;;13.90;;
63316;SDS011;49822;41.468;13.560;2022-10-16T09:26:55;21.13;;;13.43;;
63316;SDS011;49822;41.468;13.560;2022-10-16T09:29:23;22.52;;;13.30;;
63316;SDS011;49822;41.468;13.560;2022-10-16T09:31:52;19.85;;;12.48;;
63316;SDS011;49822;41.468;13.560;2022-10-16T09:34:30;18.30;;;12.73;;
63316;SDS011;49822;41.468;13.560;2022-10-16T09:37:00;18.75;;;11.20;;
63316;SDS011;49822;41.468;13.560;2022-10-16T09:39:30;18.75;;;11.63;;
63316;SDS011;49822;41.468;13.560;2022-10-16T09:42:16;18.00;;;11.73;;
63316;SDS011;49822;41.468;13.560;2022-10-16T09:44:50;16.45;;;10.80;;
63316;SDS011;49822;41.468;13.560;2022-10-16T09:47:23;21.10;;;11.63;;
63316;SDS011;49822;41.468;13.560;2022-10-16T09:49:57;16.05;;;10.30;;
63316;SDS011;49822;41.468;13.560;2022-10-16T09:52:35;21.03;;;11.97;;
63316;SDS011;49822;41.468;13.560;2022-10-16T09:55:16;15.73;;;10.88;;
63316;SDS011;49822;41.468;13.560;2022-10-16T09:57:49;16.83;;;10.38;;
63316;SDS011;49822;41.468;13.560;2022-10-16T10:00:20;26.20;;;13.02;;
63316;SDS011;49822;41.468;13.560;2022-10-16T10:02:58;21.85;;;11.07;;
63316;SDS011;49822;41.468;13.560;2022-10-16T10:05:27;15.57;;;10.82;;
63316;SDS011;49822;41.468;13.560;2022-10-16T10:07:56;16.83;;;10.93;;
63316;SDS011;49822;41.468;13.560;2022-10-16T10:10:41;14.07;;;9.85;;
63316;SDS011;49822;41.468;13.560;2022-10-16T10:13:19;16.48;;;10.18;;
63316;SDS011;49822;41.468;13.560;2022-10-16T10:15:49;14.95;;;10.80;;
63316;SDS011;49822;41.468;13.560;2022-10-16T10:18:21;16.17;;;9.43;;
63316;SDS011;49822;41.468;13.560;2022-10-16T10:20:57;15.07;;;10.23;;
63316;SDS011;49822;41.468;13.560;2022-10-16T10:23:30;15.80;;;10.20;;
63316;SDS011;49822;41.468;13.560;2022-10-16T10:26:04;16.98;;;11.10;;
63316;SDS011;49822;41.468;13.560;2022-10-16T10:31:55;15.98;;;10.57;;
63316;SDS011;49822;41.468;13.560;2022-10-16T10:40:45;15.38;;;9.15;;
63316;SDS011;49822;41.468;13.560;2022-10-16T10:46:25;12.27;;;8.63;;
63316;SDS011;49822;41.468;13.560;2022-10-16T10:49:12;13.52;;;8.95;;
63316;SDS011;49822;41.468;13.560;2022-10-16T10:55:14;14.82;;;8.90;;
63316;SDS011;49822;41.468;13.560;2022-10-16T10:57:47;16.23;;;9.20;;
63316;SDS011;49822;41.468;13.560;2022-10-16T11:06:06;11.48;;;7.95;;
63316;SDS011;49822;41.468;13.560;2022-10-16T11:08:55;11.60;;;8.38;;
63316;SDS011;49822;41.468;13.560;2022-10-16T11:11:35;12.50;;;8.30;;
63316;SDS011;49822;41.468;13.560;2022-10-16T11:14:19;12.15;;;9.05;;
63316;SDS011;49822;41.468;13.560;2022-10-16T11:17:13;11.63;;;8.57;;
63316;SDS011;49822;41.468;13.560;2022-10-16T11:24:53;12.98;;;8.00;;
63316;SDS011;49822;41.468;13.560;2022-10-16T11:50:23;9.85;;;6.97;;
63316;SDS011;49822;41.468;13.560;2022-10-16T11:53:37;12.93;;;7.82;;
63316;SDS011;49822;41.468;13.560;2022-10-16T11:55:44;9.02;;;6.57;;
63316;SDS011;49822;41.468;13.560;2022-10-16T11:58:32;13.18;;;7.15;;
63316;SDS011;49822;41.468;13.560;2022-10-16T12:07:13;11.55;;;6.47;;
63316;SDS011;49822;41.468;13.560;2022-10-16T12:09:45;9.38;;;6.75;;
63316;SDS011;49822;41.468;13.560;2022-10-16T12:12:37;11.30;;;7.55;;
63316;SDS011;49822;41.468;13.560;2022-10-16T12:15:18;9.00;;;6.50;;
63316;SDS011;49822;41.468;13.560;2022-10-16T12:18:25;8.63;;;6.63;;
63316;SDS011;49822;41.468;13.560;2022-10-16T12:20:56;10.27;;;5.68;;
63316;SDS011;49822;41.468;13.560;2022-10-16T12:23:27;10.60;;;6.18;;
63316;SDS011;49822;41.468;13.560;2022-10-16T12:25:58;9.65;;;6.13;;
63316;SDS011;49822;41.468;13.560;2022-10-16T12:28:27;9.95;;;7.22;;
63316;SDS011;49822;41.468;13.560;2022-10-16T12:31:04;13.05;;;7.40;;
63316;SDS011;49822;41.468;13.560;2022-10-16T12:33:35;10.65;;;6.25;;
63316;SDS011;49822;41.468;13.560;2022-10-16T12:36:26;17.13;;;11.82;;
63316;SDS011;49822;41.468;13.560;2022-10-16T12:38:58;34.13;;;15.65;;
63316;SDS011;49822;41.468;13.560;2022-10-16T12:41:28;10.70;;;6.53;;
63316;SDS011;49822;41.468;13.560;2022-10-16T12:44:01;28.58;;;13.88;;
63316;SDS011;49822;41.468;13.560;2022-10-16T12:51:39;45.22;;;19.55;;
63316;SDS011;49822;41.468;13.560;2022-10-16T12:54:17;43.28;;;21.70;;
63316;SDS011;49822;41.468;13.560;2022-10-16T12:59:42;12.65;;;5.30;;
63316;SDS011;49822;41.468;13.560;2022-10-16T13:02:18;10.65;;;5.60;;
63316;SDS011;49822;41.468;13.560;2022-10-16T13:16:22;8.90;;;5.45;;
63316;SDS011;49822;41.468;13.560;2022-10-16T13:24:19;8.00;;;5.55;;
63316;SDS011;49822;41.468;13.560;2022-10-16T13:26:57;8.73;;;5.40;;
63316;SDS011;49822;41.468;13.560;2022-10-16T13:29:33;7.88;;;5.68;;
63316;SDS011;49822;41.468;13.560;2022-10-16T13:32:01;7.68;;;5.68;;
63316;SDS011;49822;41.468;13.560;2022-10-16T13:34:43;5.90;;;4.80;;
63316;SDS011;49822;41.468;13.560;2022-10-16T13:37:18;7.13;;;5.18;;
63316;SDS011;49822;41.468;13.560;2022-10-16T13:39:48;7.72;;;4.93;;
63316;SDS011;49822;41.468;13.560;2022-10-16T13:42:26;7.00;;;5.07;;
63316;SDS011;49822;41.468;13.560;2022-10-16T13:44:56;8.95;;;5.20;;
63316;SDS011;49822;41.468;13.560;2022-10-16T13:47:25;7.93;;;5.10;;
63316;SDS011;49822;41.468;13.560;2022-10-16T13:52:33;9.73;;;5.50;;
63316;SDS011;49822;41.468;13.560;2022-10-16T13:55:01;9.32;;;5.28;;
63316;SDS011;49822;41.468;13.560;2022-10-16T13:57:28;8.10;;;6.13;;
63316;SDS011;49822;41.468;13.560;2022-10-16T13:59:55;7.75;;;5.13;;
63316;SDS011;49822;41.468;13.560;2022-10-16T14:02:29;9.00;;;5.10;;
63316;SDS011;49822;41.468;13.560;2022-10-16T14:05:02;8.27;;;5.28;;
63316;SDS011;49822;41.468;13.560;2022-10-16T14:07:35;6.80;;;5.15;;
63316;SDS011;49822;41.468;13.560;2022-10-16T14:10:05;10.00;;;5.30;;
63316;SDS011;49822;41.468;13.560;2022-10-16T14:12:44;6.50;;;5.10;;
63316;SDS011;49822;41.468;13.560;2022-10-16T14:15:22;9.25;;;5.53;;
63316;SDS011;49822;41.468;13.560;2022-10-16T14:17:58;7.40;;;4.82;;
63316;SDS011;49822;41.468;13.560;2022-10-16T14:20:30;7.97;;;4.72;;
63316;SDS011;49822;41.468;13.560;2022-10-16T14:23:04;5.85;;;4.70;;
63316;SDS011;49822;41.468;13.560;2022-10-16T14:28:36;6.78;;;5.05;;
63316;SDS011;49822;41.468;13.560;2022-10-16T14:33:54;7.10;;;4.82;;
63316;SDS011;49822;41.468;13.560;2022-10-16T14:36:22;6.63;;;4.85;;
63316;SDS011;49822;41.468;13.560;2022-10-16T14:39:06;8.48;;;5.05;;
63316;SDS011;49822;41.468;13.560;2022-10-16T14:41:45;6.90;;;5.38;;
63316;SDS011;49822;41.468;13.560;2022-10-16T14:44:14;8.32;;;5.07;;
63316;SDS011;49822;41.468;13.560;2022-10-16T14:51:40;8.68;;;5.35;;
63316;SDS011;49822;41.468;13.560;2022-10-16T14:54:09;6.72;;;4.85;;
63316;SDS011;49822;41.468;13.560;2022-10-16T14:56:48;9.63;;;5.70;;
63316;SDS011;49822;41.468;13.560;2022-10-16T15:02:09;8.93;;;5.25;;
63316;SDS011;49822;41.468;13.560;2022-10-16T15:04:54;6.72;;;4.68;;
63316;SDS011;49822;41.468;13.560;2022-10-16T15:07:23;8.52;;;5.63;;
63316;SDS011;49822;41.468;13.560;2022-10-16T15:09:52;7.57;;;4.93;;
63316;SDS011;49822;41.468;13.560;2022-10-16T15:12:21;7.65;;;4.90;;
63316;SDS011;49822;41.468;13.560;2022-10-16T15:14:48;6.88;;;4.75;;
63316;SDS011;49822;41.468;13.560;2022-10-16T15:17:15;9.73;;;5.43;;
63316;SDS011;49822;41.468;13.560;2022-10-16T15:19:47;8.68;;;5.20;;
63316;SDS011;49822;41.468;13.560;2022-10-16T15:22:14;8.10;;;4.90;;
63316;SDS011;49822;41.468;13.560;2022-10-16T15:24:42;8.35;;;6.05;;
63316;SDS011;49822;41.468;13.560;2022-10-16T15:27:09;7.70;;;5.45;;
63316;SDS011;49822;41.468;13.560;2022-10-16T15:29:37;20.08;;;10.80;;
63316;SDS011;49822;41.468;13.560;2022-10-16T15:32:05;17.52;;;10.38;;
63316;SDS011;49822;41.468;13.560;2022-10-16T15:34:32;15.70;;;8.65;;
63316;SDS011;49822;41.468;13.560;2022-10-16T15:37:02;10.48;;;6.97;;
63316;SDS011;49822;41.468;13.560;2022-10-16T15:39:30;10.48;;;6.90;;
63316;SDS011;49822;41.468;13.560;2022-10-16T15:41:58;16.20;;;7.78;;
63316;SDS011;49822;41.468;13.560;2022-10-16T15:44:25;17.35;;;9.55;;
63316;SDS011;49822;41.468;13.560;2022-10-16T15:46:57;18.17;;;8.60;;
63316;SDS011;49822;41.468;13.560;2022-10-16T15:49:25;12.98;;;7.43;;
63316;SDS011;49822;41.468;13.560;2022-10-16T15:51:53;10.05;;;7.35;;
63316;SDS011;49822;41.468;13.560;2022-10-16T15:54:21;15.23;;;8.50;;
63316;SDS011;49822;41.468;13.560;2022-10-16T15:56:49;13.82;;;8.43;;
63316;SDS011;49822;41.468;13.560;2022-10-16T15:59:19;15.55;;;9.30;;
63316;SDS011;49822;41.468;13.560;2022-10-16T16:01:50;11.90;;;8.48;;
63316;SDS011;49822;41.468;13.560;2022-10-16T16:04:18;11.43;;;7.35;;
63316;SDS011;49822;41.468;13.560;2022-10-16T16:07:05;11.20;;;6.85;;
63316;SDS011;49822;41.468;13.560;2022-10-16T16:12:03;14.55;;;6.93;;
63316;SDS011;49822;41.468;13.560;2022-10-16T16:14:31;24.90;;;10.07;;
63316;SDS011;49822;41.468;13.560;2022-10-16T16:17:00;12.27;;;7.82;;
63316;SDS011;49822;41.468;13.560;2022-10-16T16:19:36;12.45;;;7.63;;
63316;SDS011;49822;41.468;13.560;2022-10-16T16:22:03;12.02;;;6.53;;
63316;SDS011;49822;41.468;13.560;2022-10-16T16:24:36;8.85;;;6.47;;
63316;SDS011;49822;41.468;13.560;2022-10-16T16:27:04;10.85;;;7.45;;
63316;SDS011;49822;41.468;13.560;2022-10-16T16:29:31;10.18;;;7.00;;
63316;SDS011;49822;41.468;13.560;2022-10-16T16:31:59;12.13;;;6.60;;
63316;SDS011;49822;41.468;13.560;2022-10-16T16:34:27;10.07;;;6.50;;
63316;SDS011;49822;41.468;13.560;2022-10-16T16:36:55;9.40;;;6.88;;
63316;SDS011;49822;41.468;13.560;2022-10-16T16:39:24;9.48;;;6.72;;
63316;SDS011;49822;41.468;13.560;2022-10-16T16:41:55;10.52;;;6.78;;
63316;SDS011;49822;41.468;13.560;2022-10-16T16:44:29;12.15;;;7.30;;
63316;SDS011;49822;41.468;13.560;2022-10-16T16:46:58;13.38;;;7.82;;
63316;SDS011;49822;41.468;13.560;2022-10-16T16:49:26;18.27;;;8.68;;
63316;SDS011;49822;41.468;13.560;2022-10-16T16:51:54;12.80;;;8.02;;
63316;SDS011;49822;41.468;13.560;2022-10-16T16:54:23;15.13;;;8.32;;
63316;SDS011;49822;41.468;13.560;2022-10-16T16:56:52;16.27;;;8.88;;
63316;SDS011;49822;41.468;13.560;2022-10-16T16:59:20;11.43;;;7.78;;
63316;SDS011;49822;41.468;13.560;2022-10-16T17:01:49;11.75;;;7.57;;
63316;SDS011;49822;41.468;13.560;2022-10-16T17:04:22;13.35;;;8.25;;
63316;SDS011;49822;41.468;13.560;2022-10-16T17:06:53;12.75;;;8.57;;
63316;SDS011;49822;41.468;13.560;2022-10-16T17:09:22;15.48;;;8.52;;